09PA weather

Eagle Field
Port Matilda, Pennsylvania, United States

Public forecast

Using degrees Fahrenheit for public forecast. Weather courtesy of forecast.io.

METAR (pilot weather report)

Closest report is University Park Airport, 6.5 nm (12.0 km) ENE. Retrieved 2019/05/21 11:53 UTC (50 minutes ago):

KUNV 211153Z 35007KT 10SM SKC 09/02 A3006

TAF (pilot weather forecast)

Closest forecast is University Park Airport, 6.5 nm (12.0 km) ENE. Retrieved 2019/05/21 12:27 UTC (16 minutes ago):

TAF KUNV 211124Z 2112/2212 33009KT P6SM SCT035 FM211500 34010G16KT P6SM SKC FM212200 34005KT P6SM SCT250